Time;durP1;ratioP1;P1;durP2;ratioP2;P2;SDS_P1;SDS_P2;PMS_P1;PMS_P2;Temp;Humidity;BMP_temperature;BMP_pressure;BME280_temperature;BME280_humidity;BME280_pressure;Samples;Min_cycle;Max_cycle;Signal;HPM_P1;HPM_P2
2022/09/22 00:00:18;;;;;;;8.95;8.05;;;20.10;99.90;;;;;;6145543;28;89465;-62
2022/09/22 00:03:20;;;;;;;9.10;8.15;;;20.00;99.90;;;;;;6140484;28;89067;-62
2022/09/22 00:06:25;;;;;;;9.80;8.80;;;20.00;99.90;;;;;;6140893;28;89068;-61
2022/09/22 00:09:27;;;;;;;9.05;7.97;;;20.00;99.90;;;;;;6146039;28;88343;-62
2022/09/22 00:12:29;;;;;;;9.35;8.35;;;20.00;99.90;;;;;;6145524;28;89143;-62
2022/09/22 00:15:31;;;;;;;8.95;7.85;;;20.00;99.90;;;;;;6160155;28;89073;-62
2022/09/22 00:18:33;;;;;;;9.93;8.68;;;20.00;99.90;;;;;;6146129;28;90018;-62
2022/09/22 00:21:36;;;;;;;9.35;8.07;;;20.00;99.90;;;;;;6147101;28;89404;-62
2022/09/22 00:24:39;;;;;;;9.57;8.48;;;20.00;99.90;;;;;;6139700;28;89034;-62
2022/09/22 00:27:41;;;;;;;9.88;8.48;;;20.00;99.90;;;;;;6141407;28;89080;-62
2022/09/22 00:30:43;;;;;;;9.27;8.27;;;20.00;99.90;;;;;;6137180;28;89102;-62
2022/09/22 00:33:46;;;;;;;9.25;8.30;;;20.00;99.90;;;;;;6157021;28;89117;-62
2022/09/22 00:36:50;;;;;;;9.68;8.10;;;20.00;99.90;;;;;;6144164;28;88902;-62
2022/09/22 00:39:53;;;;;;;9.57;8.35;;;20.00;99.90;;;;;;6147665;28;88334;-62
2022/09/22 00:43:09;;;;;;;9.68;8.38;;;20.00;99.90;;;;;;6146605;28;88897;-62
2022/09/22 00:46:16;;;;;;;8.80;7.90;;;20.00;99.90;;;;;;6145450;28;89492;-62
2022/09/22 00:49:22;;;;;;;8.30;7.40;;;20.00;99.90;;;;;;6137447;28;88989;-62
2022/09/22 00:52:28;;;;;;;9.18;8.27;;;20.00;99.90;;;;;;6140590;28;89079;-62
2022/09/22 00:55:35;;;;;;;8.85;7.95;;;20.00;99.90;;;;;;6153987;28;87932;-62
2022/09/22 00:58:40;;;;;;;9.48;8.20;;;20.00;99.90;;;;;;6147416;28;89101;-62
2022/09/22 01:01:42;;;;;;;8.82;7.78;;;20.00;99.90;;;;;;6146451;28;89369;-62
2022/09/22 01:04:45;;;;;;;9.32;8.20;;;20.00;99.90;;;;;;6144034;28;89443;-62
2022/09/22 01:07:49;;;;;;;9.30;8.30;;;20.00;99.90;;;;;;6138256;28;89101;-62
2022/09/22 01:10:51;;;;;;;9.30;8.02;;;19.90;99.90;;;;;;6143459;28;88343;-62
2022/09/22 01:14:02;;;;;;;8.98;8.02;;;20.00;99.90;;;;;;6160604;28;89083;-62
2022/09/22 01:17:11;;;;;;;8.80;7.90;;;20.00;99.90;;;;;;6160691;28;89094;-61
2022/09/22 01:20:43;;;;;;;8.68;7.70;;;20.00;99.90;;;;;;6149684;28;90196;-62
2022/09/22 01:24:28;;;;;;;9.20;8.05;;;20.00;99.90;;;;;;6133200;28;89046;-61
2022/09/22 01:27:59;;;;;;;8.48;7.47;;;20.00;99.90;;;;;;6153410;28;89216;-62
2022/09/22 01:31:11;;;;;;;9.32;8.05;;;20.00;99.90;;;;;;6143576;28;89361;-62
2022/09/22 01:34:19;;;;;;;9.52;7.85;;;20.00;99.90;;;;;;6147083;28;87654;-62
2022/09/22 01:37:26;;;;;;;9.98;7.95;;;20.00;99.90;;;;;;6142691;28;89095;-62
2022/09/22 01:40:34;;;;;;;9.00;7.63;;;20.00;99.90;;;;;;6151081;28;89219;-62
2022/09/22 01:43:42;;;;;;;8.65;7.47;;;19.90;99.90;;;;;;6151161;28;88851;-62
2022/09/22 01:46:54;;;;;;;7.78;6.97;;;19.90;99.90;;;;;;6142205;28;89416;-61
2022/09/22 01:50:01;;;;;;;8.30;7.40;;;20.00;99.90;;;;;;6156285;28;89416;-62
2022/09/22 01:53:08;;;;;;;8.82;7.28;;;19.90;99.90;;;;;;6142906;28;89923;-62
2022/09/22 01:56:13;;;;;;;8.00;7.20;;;19.90;99.90;;;;;;6146643;28;89490;-61
2022/09/22 01:59:17;;;;;;;8.25;7.00;;;19.90;99.90;;;;;;6145836;28;89449;-62
2022/09/22 02:02:24;;;;;;;7.72;6.90;;;19.90;99.90;;;;;;6145609;28;89089;-61
2022/09/22 02:05:33;;;;;;;9.13;7.50;;;19.90;99.90;;;;;;6151228;28;87995;-62
2022/09/22 02:08:39;;;;;;;7.28;6.43;;;20.00;99.90;;;;;;6175122;28;89248;-61
2022/09/22 02:11:42;;;;;;;8.13;6.95;;;20.00;99.90;;;;;;6163175;28;89080;-62
2022/09/22 02:14:44;;;;;;;7.47;6.68;;;19.90;99.90;;;;;;6161103;28;88283;-61
2022/09/22 02:17:47;;;;;;;7.43;6.55;;;19.90;99.90;;;;;;6150221;28;89095;-61
2022/09/22 02:20:50;;;;;;;7.40;6.43;;;19.90;99.90;;;;;;6160724;28;89077;-62
2022/09/22 02:23:52;;;;;;;7.38;6.53;;;19.90;99.90;;;;;;6162472;28;90021;-62
2022/09/22 02:26:55;;;;;;;7.30;6.55;;;19.90;99.90;;;;;;6160524;28;89509;-62
2022/09/22 02:30:01;;;;;;;7.18;6.45;;;19.90;99.90;;;;;;6150428;28;89611;-62
2022/09/22 02:33:05;;;;;;;7.15;6.45;;;19.90;99.90;;;;;;6158448;28;89105;-62
2022/09/22 02:36:34;;;;;;;7.35;6.22;;;19.90;99.90;;;;;;6160143;28;89007;-62
2022/09/22 02:39:40;;;;;;;7.40;6.43;;;19.90;99.90;;;;;;6154159;28;89335;-62
2022/09/22 02:42:48;;;;;;;8.43;6.82;;;19.90;99.90;;;;;;6165374;28;89165;-62
2022/09/22 02:45:57;;;;;;;6.70;6.00;;;19.90;99.90;;;;;;6149370;28;88377;-62
2022/09/22 02:49:03;;;;;;;6.40;5.70;;;19.90;99.90;;;;;;6154178;28;91328;-62
2022/09/22 02:52:11;;;;;;;6.80;6.10;;;19.90;99.90;;;;;;6145433;28;89189;-63
2022/09/22 02:55:13;;;;;;;6.68;5.97;;;19.90;99.90;;;;;;6144200;28;90286;-62
2022/09/22 02:58:17;;;;;;;7.38;6.18;;;19.90;99.90;;;;;;6159955;28;89060;-62
2022/09/22 03:01:19;;;;;;;7.13;5.95;;;19.90;99.90;;;;;;6146368;28;89448;-62
2022/09/22 03:04:23;;;;;;;7.82;6.13;;;19.90;99.90;;;;;;6146106;28;89078;-62
2022/09/22 03:07:25;;;;;;;6.32;5.60;;;19.90;99.90;;;;;;6148587;28;89453;-62
2022/09/22 03:10:27;;;;;;;5.97;5.38;;;19.90;99.90;;;;;;6154587;28;88579;-62
2022/09/22 03:13:29;;;;;;;6.38;5.43;;;19.90;99.90;;;;;;6159373;28;89112;-62
2022/09/22 03:16:31;;;;;;;6.68;5.93;;;19.90;99.90;;;;;;6148464;28;88380;-62
2022/09/22 03:19:34;;;;;;;5.95;5.35;;;19.90;99.90;;;;;;6157672;28;89081;-62
2022/09/22 03:22:36;;;;;;;6.55;5.55;;;19.90;99.90;;;;;;6146570;28;88003;-61
2022/09/22 03:25:38;;;;;;;6.45;5.80;;;19.80;99.90;;;;;;6158242;28;90200;-61
2022/09/22 03:28:42;;;;;;;6.13;5.47;;;19.90;99.90;;;;;;6138985;28;89645;-61
2022/09/22 03:31:44;;;;;;;6.28;5.20;;;19.90;99.90;;;;;;6152863;28;90822;-61
2022/09/22 03:34:48;;;;;;;5.63;5.13;;;19.90;99.90;;;;;;6142262;28;89165;-61
2022/09/22 03:37:50;;;;;;;6.40;5.30;;;19.90;99.90;;;;;;6149060;28;89411;-61
2022/09/22 03:40:52;;;;;;;5.57;4.90;;;19.90;99.90;;;;;;6136143;28;89520;-62
2022/09/22 03:43:54;;;;;;;6.43;5.15;;;19.90;99.90;;;;;;6147659;28;89203;-61
2022/09/22 03:46:56;;;;;;;5.30;4.75;;;19.90;99.90;;;;;;6147622;28;88383;-61
2022/09/22 03:50:00;;;;;;;5.70;5.10;;;19.90;99.90;;;;;;6136583;28;89077;-62
2022/09/22 03:53:02;;;;;;;5.63;4.93;;;19.90;99.90;;;;;;6154077;28;89186;-62
2022/09/22 03:56:08;;;;;;;7.40;5.35;;;19.90;99.90;;;;;;6143129;28;89698;-62
2022/09/22 03:59:10;;;;;;;6.00;4.93;;;19.90;99.90;;;;;;6147233;28;89241;-62
2022/09/22 04:02:12;;;;;;;5.30;4.75;;;19.90;99.90;;;;;;6147570;28;89004;-62
2022/09/22 04:05:16;;;;;;;5.15;4.65;;;19.90;99.90;;;;;;6148171;28;89125;-62
2022/09/22 04:08:18;;;;;;;4.95;4.45;;;19.90;99.90;;;;;;6150912;28;89146;-62
2022/09/22 04:11:20;;;;;;;5.25;4.75;;;19.80;99.90;;;;;;6157334;28;89357;-62
2022/09/22 04:14:22;;;;;;;5.18;4.68;;;19.90;99.90;;;;;;6146084;28;89326;-61
2022/09/22 04:17:24;;;;;;;5.70;4.88;;;19.80;99.90;;;;;;6146321;28;88362;-62
2022/09/22 04:20:29;;;;;;;5.30;4.80;;;19.90;99.90;;;;;;6158411;28;89073;-62
2022/09/22 04:23:31;;;;;;;5.82;5.03;;;19.80;99.90;;;;;;6146172;28;89390;-62
2022/09/22 04:26:33;;;;;;;4.75;4.25;;;19.80;99.90;;;;;;6146256;28;90031;-62
2022/09/22 04:29:35;;;;;;;5.25;4.40;;;19.80;99.90;;;;;;6146507;28;89365;-61
2022/09/22 04:32:36;;;;;;;4.82;4.32;;;19.90;99.90;;;;;;6146360;28;89100;-62
2022/09/22 04:35:40;;;;;;;4.78;4.35;;;19.80;99.90;;;;;;6146185;28;89130;-62
2022/09/22 04:38:42;;;;;;;5.97;4.53;;;19.90;99.90;;;;;;6148958;28;89680;-62
2022/09/22 04:41:44;;;;;;;4.72;4.28;;;19.80;99.90;;;;;;6157077;28;89089;-62
2022/09/22 04:44:46;;;;;;;4.53;4.10;;;19.80;99.90;;;;;;6145628;28;89370;-61
2022/09/22 04:47:49;;;;;;;4.80;4.30;;;19.80;99.90;;;;;;6139208;28;88347;-62
2022/09/22 04:50:53;;;;;;;6.18;4.82;;;19.90;99.90;;;;;;6147078;28;89041;-62
2022/09/22 04:53:55;;;;;;;4.97;4.18;;;19.90;99.90;;;;;;6146811;28;89435;-61
2022/09/22 04:56:57;;;;;;;4.53;4.13;;;19.90;99.90;;;;;;6156538;28;90450;-62
2022/09/22 04:59:59;;;;;;;4.60;4.10;;;19.80;99.90;;;;;;6139460;28;89097;-61
2022/09/22 05:03:02;;;;;;;4.63;4.13;;;19.90;99.90;;;;;;6153382;28;89099;-61
2022/09/22 05:06:06;;;;;;;5.25;4.32;;;19.90;99.90;;;;;;6146311;28;88887;-61
2022/09/22 05:09:08;;;;;;;4.45;4.05;;;19.80;99.90;;;;;;6146759;28;87955;-62
2022/09/22 05:12:10;;;;;;;4.45;4.05;;;19.80;99.90;;;;;;6146619;28;89118;-62
2022/09/22 05:15:13;;;;;;;4.72;4.15;;;19.80;99.90;;;;;;6170481;28;89082;-61
2022/09/22 05:18:15;;;;;;;4.30;3.90;;;19.80;99.90;;;;;;6144709;28;88252;-62
2022/09/22 05:21:19;;;;;;;5.03;4.45;;;19.80;99.90;;;;;;6146414;28;89118;-62
2022/09/22 05:24:21;;;;;;;5.15;4.20;;;19.80;99.90;;;;;;6142203;28;89445;-62
2022/09/22 05:27:23;;;;;;;4.50;4.10;;;19.80;99.90;;;;;;6155271;28;89991;-61
2022/09/22 05:30:26;;;;;;;4.32;3.92;;;19.90;99.90;;;;;;6144405;28;89193;-61
2022/09/22 05:33:28;;;;;;;4.38;3.95;;;19.80;99.90;;;;;;6144271;28;88188;-62
2022/09/22 05:36:32;;;;;;;4.28;3.88;;;19.80;99.90;;;;;;6153513;28;89449;-61
2022/09/22 05:39:34;;;;;;;4.50;4.00;;;19.80;99.90;;;;;;6146380;28;89165;-62
2022/09/22 05:42:40;;;;;;;4.50;4.10;;;19.90;99.90;;;;;;6157045;28;88876;-61
2022/09/22 05:45:42;;;;;;;4.47;3.97;;;19.90;99.90;;;;;;6135289;28;88994;-62
2022/09/22 05:48:44;;;;;;;5.03;4.05;;;19.90;99.90;;;;;;6149911;28;88320;-62
2022/09/22 05:51:51;;;;;;;4.32;3.92;;;19.90;99.90;;;;;;6155730;28;89429;-62
2022/09/22 05:54:52;;;;;;;5.13;4.00;;;19.90;99.90;;;;;;6148912;28;88027;-61
2022/09/22 05:57:57;;;;;;;4.68;4.00;;;19.90;99.90;;;;;;6151732;28;89984;-62
2022/09/22 06:00:59;;;;;;;4.15;3.75;;;19.90;99.90;;;;;;6158499;28;88067;-61
2022/09/22 06:04:01;;;;;;;4.40;3.90;;;19.90;99.90;;;;;;6149620;28;87153;-61
2022/09/22 06:07:05;;;;;;;4.40;4.00;;;19.90;99.90;;;;;;6150479;28;89101;-62
2022/09/22 06:10:10;;;;;;;4.40;3.90;;;19.90;99.90;;;;;;6160494;28;89002;-62
2022/09/22 06:13:12;;;;;;;4.28;3.88;;;19.90;99.90;;;;;;6150780;28;89981;-62
2022/09/22 06:16:14;;;;;;;4.20;3.80;;;20.00;99.90;;;;;;6146004;28;89448;-61
2022/09/22 06:19:16;;;;;;;5.45;4.10;;;20.00;99.90;;;;;;6159713;28;88368;-62
2022/09/22 06:22:19;;;;;;;4.25;3.85;;;20.00;99.90;;;;;;6146827;28;87883;-62
2022/09/22 06:25:22;;;;;;;4.22;3.83;;;20.00;99.90;;;;;;6159394;28;88999;-62
2022/09/22 06:28:24;;;;;;;4.15;3.75;;;20.00;99.90;;;;;;6158478;28;90102;-62
2022/09/22 06:31:26;;;;;;;5.50;4.07;;;20.00;99.90;;;;;;6146586;28;89373;-62
2022/09/22 06:34:28;;;;;;;3.75;3.38;;;20.00;99.90;;;;;;6149362;28;89187;-62
2022/09/22 06:37:32;;;;;;;3.97;3.58;;;20.00;99.90;;;;;;6160202;28;89118;-62
2022/09/22 06:40:35;;;;;;;4.07;3.40;;;20.00;99.90;;;;;;6158377;28;89050;-62
2022/09/22 06:43:37;;;;;;;4.28;3.75;;;20.00;99.90;;;;;;6156667;28;89223;-62
2022/09/22 06:46:39;;;;;;;3.80;3.40;;;20.00;99.90;;;;;;6154191;28;89184;-62
2022/09/22 06:49:42;;;;;;;4.28;3.78;;;20.00;99.90;;;;;;6153743;28;88364;-63
2022/09/22 06:52:45;;;;;;;4.25;3.80;;;20.00;99.90;;;;;;6151309;28;89111;-62
2022/09/22 06:55:47;;;;;;;5.07;3.90;;;20.00;99.90;;;;;;6147600;28;89035;-62
2022/09/22 06:58:49;;;;;;;4.25;3.80;;;19.90;99.90;;;;;;6137456;28;90178;-62
2022/09/22 07:01:51;;;;;;;3.90;3.50;;;19.90;99.90;;;;;;6138690;28;89112;-62
2022/09/22 07:04:53;;;;;;;3.63;3.30;;;19.90;99.90;;;;;;6147933;28;89093;-62
2022/09/22 07:07:56;;;;;;;3.50;3.20;;;19.90;99.90;;;;;;6137238;28;89119;-62
2022/09/22 07:11:00;;;;;;;4.05;3.65;;;19.90;99.90;;;;;;6154382;28;88310;-62
2022/09/22 07:14:03;;;;;;;3.97;3.50;;;19.90;99.90;;;;;;6157372;28;89093;-62
2022/09/22 07:17:05;;;;;;;3.90;3.50;;;19.90;99.90;;;;;;6167738;28;89633;-61
2022/09/22 07:20:08;;;;;;;4.50;3.83;;;19.90;99.90;;;;;;6159907;28;88611;-62
2022/09/22 07:23:16;;;;;;;3.90;3.50;;;20.00;99.90;;;;;;6159994;28;89070;-62
2022/09/22 07:26:20;;;;;;;4.03;3.22;;;20.00;99.90;;;;;;6147634;28;89145;-62
2022/09/22 07:29:22;;;;;;;4.97;3.70;;;19.90;99.90;;;;;;6145941;28;90318;-62
2022/09/22 07:32:27;;;;;;;3.90;3.50;;;19.90;99.90;;;;;;6150022;28;89498;-62
2022/09/22 07:35:28;;;;;;;3.70;3.30;;;19.90;99.90;;;;;;6148626;28;89055;-62
2022/09/22 07:38:35;;;;;;;3.65;3.35;;;20.00;99.90;;;;;;6141831;28;88569;-62
2022/09/22 07:41:40;;;;;;;3.53;3.22;;;19.90;99.90;;;;;;6159212;28;87997;-62
2022/09/22 07:51:26;;;;;;;3.45;2.90;;;20.00;99.90;;;;;;6147255;28;87236;-61
2022/09/22 07:54:32;;;;;;;3.35;3.05;;;20.00;99.90;;;;;;6146052;28;89172;-62
2022/09/22 07:57:37;;;;;;;4.65;3.47;;;20.00;99.90;;;;;;6145944;28;89201;-62
2022/09/22 08:00:39;;;;;;;4.55;3.53;;;20.00;99.90;;;;;;6147052;28;88954;-62
2022/09/22 08:03:41;;;;;;;3.60;3.30;;;20.00;99.90;;;;;;6157908;28;88901;-62
2022/09/22 08:06:44;;;;;;;3.50;3.08;;;20.00;99.90;;;;;;6158358;28;88839;-62
2022/09/22 08:09:47;;;;;;;3.63;3.33;;;20.00;99.90;;;;;;6150702;28;89147;-62
2022/09/22 08:12:52;;;;;;;4.25;3.28;;;19.90;99.90;;;;;;6140665;28;89073;-62
2022/09/22 08:15:55;;;;;;;4.13;3.33;;;20.00;99.90;;;;;;6171533;28;89052;-62
2022/09/22 08:18:58;;;;;;;3.45;3.15;;;20.00;99.90;;;;;;6153315;28;89382;-62
2022/09/22 08:21:59;;;;;;;3.60;3.30;;;20.00;99.90;;;;;;6151702;28;88480;-62
2022/09/22 08:25:03;;;;;;;3.97;3.28;;;20.00;99.90;;;;;;6156202;28;89062;-62
2022/09/22 08:28:05;;;;;;;3.85;3.10;;;20.00;99.90;;;;;;6146970;28;90345;-62
2022/09/22 08:31:12;;;;;;;3.42;3.10;;;20.00;99.90;;;;;;6157943;28;90220;-62
2022/09/22 08:34:15;;;;;;;3.15;2.85;;;20.00;99.90;;;;;;6146048;28;92571;-62
2022/09/22 08:37:17;;;;;;;3.28;2.97;;;20.00;99.90;;;;;;6146438;28;89938;-62
2022/09/22 08:40:22;;;;;;;3.20;2.90;;;20.00;99.90;;;;;;6157402;28;89052;-62
2022/09/22 08:43:24;;;;;;;3.58;3.05;;;20.00;99.90;;;;;;6157753;28;89135;-62
2022/09/22 08:46:30;;;;;;;3.33;3.00;;;20.00;99.90;;;;;;6147769;28;89081;-62
2022/09/22 08:52:58;;;;;;;3.20;2.90;;;20.00;99.90;;;;;;6156693;28;86614;-62
2022/09/22 08:56:11;;;;;;;3.42;3.05;;;20.00;99.90;;;;;;6152418;28;89082;-62
2022/09/22 08:59:18;;;;;;;3.67;3.15;;;20.00;99.90;;;;;;6146976;28;89419;-62
2022/09/22 09:02:37;;;;;;;4.35;3.05;;;20.00;99.90;;;;;;6157007;28;90877;-62
2022/09/22 09:06:02;;;;;;;4.35;3.33;;;20.00;99.90;;;;;;6144285;28;88989;-62
2022/09/22 09:09:30;;;;;;;3.10;2.80;;;20.00;99.90;;;;;;6146406;28;89228;-62
2022/09/22 09:12:52;;;;;;;2.95;2.55;;;20.00;99.90;;;;;;6151092;28;89053;-62
2022/09/22 09:16:08;;;;;;;3.05;2.60;;;20.00;99.90;;;;;;6170398;28;87944;-62
2022/09/22 09:19:16;;;;;;;3.42;2.90;;;20.00;99.90;;;;;;6144674;28;89055;-62
2022/09/22 09:22:23;;;;;;;3.25;2.90;;;20.00;99.90;;;;;;6156413;28;89108;-62
2022/09/22 09:25:33;;;;;;;3.05;2.75;;;20.00;99.90;;;;;;6151844;28;88446;-62
2022/09/22 09:28:40;;;;;;;2.97;2.65;;;20.00;99.90;;;;;;6145831;28;89150;-61
2022/09/22 09:31:48;;;;;;;3.10;2.80;;;20.00;99.90;;;;;;6145692;28;89167;-62
2022/09/22 09:34:50;;;;;;;3.08;2.70;;;20.00;99.90;;;;;;6148174;28;90104;-62
2022/09/22 09:37:53;;;;;;;3.67;3.00;;;20.00;99.90;;;;;;6156924;28;89040;-62
2022/09/22 09:41:02;;;;;;;3.10;2.80;;;20.00;99.90;;;;;;6144773;28;89320;-61
2022/09/22 09:44:06;;;;;;;3.25;2.65;;;20.00;99.90;;;;;;6133795;28;89310;-62
2022/09/22 09:47:18;;;;;;;3.00;2.70;;;20.10;99.90;;;;;;6155199;28;89051;-61
2022/09/22 09:50:20;;;;;;;2.95;2.63;;;20.00;99.90;;;;;;6146367;28;91952;-61
2022/09/22 09:53:32;;;;;;;2.70;2.50;;;20.00;99.90;;;;;;6142526;28;89122;-62
2022/09/22 09:56:36;;;;;;;3.10;2.70;;;20.10;99.90;;;;;;6150201;28;87958;-62
2022/09/22 10:03:14;;;;;;;2.97;2.45;;;20.00;99.90;;;;;;6146084;28;87275;-62
2022/09/22 10:06:24;;;;;;;2.92;2.50;;;20.10;99.90;;;;;;6131927;28;90524;-62
2022/09/22 10:09:29;;;;;;;3.00;2.70;;;20.10;99.90;;;;;;6150526;28;87940;-61
2022/09/22 10:12:32;;;;;;;3.05;2.75;;;20.10;99.90;;;;;;6143099;28;89382;-61
2022/09/22 10:15:37;;;;;;;2.90;2.60;;;20.10;99.90;;;;;;6169223;28;89011;-61
2022/09/22 10:18:40;;;;;;;2.30;2.10;;;20.10;99.90;;;;;;6143743;28;88080;-62
2022/09/22 10:21:42;;;;;;;3.80;2.85;;;20.10;99.90;;;;;;6155588;28;89064;-62
2022/09/22 10:24:54;;;;;;;2.60;2.40;;;20.10;99.90;;;;;;6156357;28;89137;-62
2022/09/22 10:28:01;;;;;;;2.80;2.55;;;20.10;99.90;;;;;;6145730;28;88323;-62
2022/09/22 10:31:05;;;;;;;2.60;2.40;;;20.10;99.90;;;;;;6144093;28;89153;-62
2022/09/22 10:34:29;;;;;;;2.80;2.50;;;20.10;99.90;;;;;;6156963;28;89086;-62
2022/09/22 10:37:31;;;;;;;2.60;2.40;;;20.10;99.90;;;;;;6148184;28;90071;-62
2022/09/22 10:40:33;;;;;;;2.78;2.47;;;20.10;99.90;;;;;;6160190;28;89024;-62
2022/09/22 10:43:45;;;;;;;2.63;2.42;;;20.10;99.90;;;;;;6160525;28;89034;-62
2022/09/22 10:47:18;;;;;;;2.45;2.22;;;20.10;99.90;;;;;;6157310;28;89102;-61
2022/09/22 10:50:48;;;;;;;3.13;2.75;;;20.10;99.90;;;;;;6150654;28;89151;-62
2022/09/22 10:54:24;;;;;;;3.58;2.53;;;20.10;99.90;;;;;;6148508;28;89030;-62
2022/09/22 10:57:40;;;;;;;2.65;2.45;;;20.10;99.90;;;;;;6101767;28;89163;-62
2022/09/22 11:00:42;;;;;;;2.63;2.10;;;20.10;99.90;;;;;;6150448;28;88354;-62
2022/09/22 11:04:13;;;;;;;2.40;2.20;;;20.10;99.90;;;;;;6136621;28;89068;-62
2022/09/22 11:14:28;;;;;;;2.60;2.40;;;20.10;99.90;;;;;;6166158;28;87314;-62
2022/09/22 11:17:59;;;;;;;2.47;2.28;;;20.10;99.90;;;;;;6158215;28;89258;-62
2022/09/22 11:21:13;;;;;;;2.30;2.10;;;20.10;99.90;;;;;;6148834;28;89067;-62
2022/09/22 11:24:37;;;;;;;2.95;2.40;;;20.20;99.90;;;;;;6156524;28;89220;-62
2022/09/22 11:27:50;;;;;;;2.40;2.20;;;20.10;99.90;;;;;;6158925;28;88886;-62
2022/09/22 11:30:56;;;;;;;2.35;2.15;;;20.10;99.90;;;;;;6137089;28;88885;-62
2022/09/22 11:34:24;;;;;;;2.28;2.08;;;20.10;99.90;;;;;;6156981;28;87155;-62
2022/09/22 11:37:43;;;;;;;2.33;2.13;;;20.10;99.90;;;;;;6159278;28;89433;-62
2022/09/22 11:41:15;;;;;;;2.47;2.20;;;20.10;99.90;;;;;;6147812;28;87939;-62
2022/09/22 11:44:34;;;;;;;3.47;2.45;;;20.20;99.90;;;;;;6147468;28;90174;-62
2022/09/22 11:47:57;;;;;;;2.95;2.45;;;20.10;99.90;;;;;;6155137;28;88565;-62
2022/09/22 11:51:15;;;;;;;3.47;2.55;;;20.10;99.90;;;;;;6146270;28;89458;-62
2022/09/22 11:54:48;;;;;;;2.22;2.03;;;20.10;99.90;;;;;;6146855;28;89089;-62
2022/09/22 11:57:55;;;;;;;2.58;2.28;;;20.10;99.90;;;;;;6117674;28;90215;-62
2022/09/22 12:01:03;;;;;;;3.47;2.63;;;20.20;99.90;;;;;;6149453;28;87964;-62
2022/09/22 12:04:10;;;;;;;2.97;2.38;;;20.10;99.90;;;;;;6158157;28;88880;-62
2022/09/22 12:07:17;;;;;;;2.50;2.15;;;20.10;99.90;;;;;;6159080;28;88422;-62
2022/09/22 12:10:29;;;;;;;2.88;2.35;;;20.10;99.90;;;;;;6159408;28;89049;-62
2022/09/22 12:13:33;;;;;;;2.22;2.03;;;20.10;99.90;;;;;;6157715;28;88735;-62
2022/09/22 12:16:41;;;;;;;2.30;2.10;;;20.10;99.90;;;;;;6171027;28;88897;-61
2022/09/22 12:19:56;;;;;;;2.25;2.03;;;20.10;99.90;;;;;;6145605;28;89133;-62
2022/09/22 12:23:19;;;;;;;2.30;2.10;;;20.10;99.90;;;;;;6159142;28;89055;-62
2022/09/22 12:26:30;;;;;;;2.55;2.30;;;20.10;99.90;;;;;;6158262;28;89094;-62
2022/09/22 12:29:32;;;;;;;2.40;2.20;;;20.10;99.90;;;;;;6135218;28;88037;-61
2022/09/22 12:32:36;;;;;;;2.20;2.00;;;20.10;99.90;;;;;;6135161;28;89438;-62
2022/09/22 12:35:39;;;;;;;2.70;2.08;;;20.20;99.90;;;;;;6144379;28;89018;-61
2022/09/22 12:38:42;;;;;;;2.10;1.90;;;20.20;99.90;;;;;;6145896;28;88556;-61
2022/09/22 12:41:48;;;;;;;2.20;2.00;;;20.10;99.90;;;;;;6144110;28;89027;-62
2022/09/22 12:44:54;;;;;;;2.80;2.10;;;20.10;99.90;;;;;;6152441;28;90043;-62
2022/09/22 12:47:58;;;;;;;2.25;2.05;;;20.10;99.90;;;;;;6152287;28;89239;-62
2022/09/22 12:51:26;;;;;;;2.35;1.90;;;20.10;99.90;;;;;;6154505;28;88963;-62
2022/09/22 12:54:46;;;;;;;2.67;2.08;;;20.10;99.90;;;;;;6157575;28;89437;-62
2022/09/22 12:57:51;;;;;;;3.30;2.17;;;20.10;99.90;;;;;;6139333;28;89144;-62
2022/09/22 13:00:54;;;;;;;2.55;2.20;;;20.10;99.90;;;;;;6157669;28;87953;-62
2022/09/22 13:04:06;;;;;;;2.42;2.08;;;20.10;99.90;;;;;;6145053;28;89026;-62
2022/09/22 13:07:34;;;;;;;2.10;1.90;;;20.10;99.90;;;;;;6134027;28;89012;-62
2022/09/22 13:10:54;;;;;;;2.63;2.20;;;20.10;99.90;;;;;;6141276;28;88599;-62
2022/09/22 13:13:58;;;;;;;2.80;2.20;;;20.10;99.90;;;;;;6160418;28;89001;-62
2022/09/22 13:17:00;;;;;;;3.15;2.25;;;20.10;99.90;;;;;;6163790;28;89444;-62
2022/09/22 13:20:14;;;;;;;3.33;2.42;;;20.10;99.90;;;;;;6133678;28;90017;-62
2022/09/22 13:23:16;;;;;;;4.20;2.70;;;20.10;99.90;;;;;;6155609;28;89200;-62
2022/09/22 13:26:21;;;;;;;2.00;1.80;;;20.10;99.90;;;;;;6145658;28;87980;-63
2022/09/22 13:29:24;;;;;;;2.00;1.80;;;20.10;99.90;;;;;;6144834;28;89154;-61
2022/09/22 13:32:27;;;;;;;2.20;2.00;;;20.10;99.90;;;;;;6156866;28;89112;-62
2022/09/22 13:35:31;;;;;;;2.10;1.90;;;20.10;99.90;;;;;;6156761;28;89176;-62
2022/09/22 13:38:37;;;;;;;2.80;2.13;;;20.10;99.90;;;;;;6155937;28;87851;-62
2022/09/22 13:41:44;;;;;;;2.10;1.90;;;20.10;99.90;;;;;;6156902;28;88299;-62
2022/09/22 13:44:53;;;;;;;2.05;1.85;;;20.10;99.90;;;;;;6155720;28;89399;-61
2022/09/22 13:48:04;;;;;;;2.10;1.90;;;20.20;99.90;;;;;;6154122;28;89153;-61
2022/09/22 13:51:09;;;;;;;2.10;1.90;;;20.20;99.90;;;;;;6144337;28;90153;-62
2022/09/22 13:54:18;;;;;;;2.00;1.80;;;20.20;99.90;;;;;;6143416;28;88865;-62
2022/09/22 13:57:23;;;;;;;1.90;1.77;;;20.20;99.90;;;;;;6156960;28;89230;-62
2022/09/22 14:00:30;;;;;;;2.20;2.00;;;20.20;99.90;;;;;;6132934;28;91321;-62
2022/09/22 14:03:37;;;;;;;1.85;1.75;;;20.20;99.90;;;;;;6142849;28;88058;-62
2022/09/22 14:06:39;;;;;;;2.10;1.90;;;20.10;99.90;;;;;;6143833;28;89085;-62
2022/09/22 14:09:41;;;;;;;2.15;1.90;;;20.20;99.90;;;;;;6150868;28;89006;-62
2022/09/22 14:12:43;;;;;;;2.10;1.90;;;20.20;99.90;;;;;;6160805;28;88371;-62
2022/09/22 14:15:47;;;;;;;2.13;1.92;;;20.20;99.90;;;;;;6168794;28;89461;-62
2022/09/22 14:18:52;;;;;;;2.03;1.83;;;20.10;99.90;;;;;;6140877;28;89202;-62
2022/09/22 14:21:57;;;;;;;2.13;1.92;;;20.20;99.90;;;;;;6157105;28;90216;-62
2022/09/22 14:25:02;;;;;;;2.20;2.00;;;20.10;99.90;;;;;;6136346;28;89071;-62
2022/09/22 14:28:04;;;;;;;2.78;1.92;;;20.10;99.90;;;;;;6150108;28;87951;-62
2022/09/22 14:31:15;;;;;;;2.25;1.85;;;20.20;99.90;;;;;;6161685;28;87060;-62
2022/09/22 14:34:21;;;;;;;1.73;1.63;;;20.20;99.90;;;;;;6149242;28;89098;-63
2022/09/22 14:37:27;;;;;;;2.10;1.88;;;20.20;99.90;;;;;;6149079;28;89336;-62
2022/09/22 14:40:30;;;;;;;2.10;1.90;;;20.20;99.90;;;;;;6146371;28;89338;-62
2022/09/22 14:43:35;;;;;;;1.83;1.73;;;20.10;99.90;;;;;;6160547;28;88311;-62
2022/09/22 14:46:40;;;;;;;2.10;1.90;;;20.20;99.90;;;;;;6141950;28;88968;-62
2022/09/22 14:49:44;;;;;;;2.60;1.90;;;20.20;99.90;;;;;;6147550;28;89135;-62
2022/09/22 14:53:00;;;;;;;1.90;1.70;;;20.20;99.90;;;;;;6150082;28;90060;-62
2022/09/22 14:56:06;;;;;;;1.98;1.77;;;20.20;99.90;;;;;;6158294;28;89172;-62
2022/09/22 15:02:39;;;;;;;2.13;1.90;;;20.10;99.90;;;;;;6146168;28;88780;-62
2022/09/22 15:05:43;;;;;;;2.60;2.00;;;20.10;99.90;;;;;;6158882;28;88225;-62
2022/09/22 15:08:51;;;;;;;1.88;1.73;;;20.20;99.90;;;;;;6159968;28;89148;-62
2022/09/22 15:11:55;;;;;;;1.48;1.38;;;20.20;99.90;;;;;;6136705;28;88974;-62
2022/09/22 15:14:59;;;;;;;1.80;1.70;;;20.10;99.90;;;;;;6171091;28;88469;-62
2022/09/22 15:18:14;;;;;;;1.60;1.50;;;20.20;99.90;;;;;;6159605;28;88973;-62
2022/09/22 15:21:17;;;;;;;2.05;1.80;;;20.20;99.90;;;;;;6145402;28;89516;-63
2022/09/22 15:24:25;;;;;;;2.00;1.80;;;20.20;99.90;;;;;;6158113;28;88891;-61
2022/09/22 15:27:27;;;;;;;2.10;1.90;;;20.10;99.90;;;;;;6159865;28;89066;-62
2022/09/22 15:30:30;;;;;;;1.83;1.70;;;20.10;99.90;;;;;;6158122;28;89101;-62
2022/09/22 15:33:34;;;;;;;2.22;1.90;;;20.20;99.90;;;;;;6145751;28;89154;-62
2022/09/22 15:36:44;;;;;;;1.95;1.70;;;20.10;99.90;;;;;;6155743;28;89168;-61
2022/09/22 15:39:46;;;;;;;2.10;1.90;;;20.10;99.90;;;;;;6138905;28;89234;-62
2022/09/22 15:42:49;;;;;;;2.55;1.88;;;20.10;99.90;;;;;;6144940;28;89482;-62
2022/09/22 15:45:55;;;;;;;1.83;1.63;;;20.10;99.90;;;;;;6158089;28;88434;-62
2022/09/22 15:49:01;;;;;;;1.92;1.80;;;20.10;99.90;;;;;;6158937;28;89446;-62
2022/09/22 15:52:03;;;;;;;2.08;1.80;;;20.10;99.90;;;;;;6157779;28;89267;-62
2022/09/22 15:55:05;;;;;;;1.90;1.80;;;20.10;99.90;;;;;;6145489;28;90013;-62
2022/09/22 15:58:12;;;;;;;1.90;1.70;;;20.20;99.90;;;;;;6145781;28;89665;-62
2022/09/22 16:01:16;;;;;;;2.03;1.83;;;20.10;99.90;;;;;;6147315;28;88928;-62
2022/09/22 16:04:20;;;;;;;2.10;1.90;;;20.20;99.90;;;;;;6155056;28;89375;-62
2022/09/22 16:07:22;;;;;;;2.30;1.90;;;20.20;99.90;;;;;;6135390;28;89429;-62
2022/09/22 16:10:24;;;;;;;2.35;1.90;;;20.20;99.90;;;;;;6146341;28;89079;-62
2022/09/22 16:13:26;;;;;;;2.33;1.90;;;20.10;99.90;;;;;;6157510;28;89241;-62
2022/09/22 16:16:29;;;;;;;2.03;1.90;;;20.10;99.90;;;;;;6159980;28;88259;-62
2022/09/22 16:19:33;;;;;;;2.22;1.90;;;20.20;99.90;;;;;;6156293;28;89102;-62
2022/09/22 16:22:35;;;;;;;2.00;1.80;;;20.10;99.90;;;;;;6150724;28;89033;-62
2022/09/22 16:25:38;;;;;;;1.90;1.80;;;20.10;99.90;;;;;;6151559;28;89954;-62
2022/09/22 16:28:39;;;;;;;1.98;1.80;;;20.10;99.90;;;;;;6158022;28;89133;-62
2022/09/22 16:31:41;;;;;;;2.28;1.80;;;20.10;99.90;;;;;;6153928;28;89411;-62
2022/09/22 16:34:45;;;;;;;1.98;1.77;;;20.10;99.90;;;;;;6147214;28;88956;-62